createdAt,value
2023-01-11T00:00:31.406Z,99.90
2023-01-11T00:03:00.715Z,99.90
2023-01-11T00:05:27.736Z,99.90
2023-01-11T00:07:55.404Z,99.90
2023-01-11T00:10:22.763Z,99.90
2023-01-11T00:12:49.978Z,99.90
2023-01-11T00:15:17.186Z,99.90
2023-01-11T00:22:39.023Z,99.90
2023-01-11T04:18:28.703Z,1.00
2023-01-11T04:20:55.910Z,1.00
2023-01-11T04:23:22.846Z,1.00
2023-01-11T04:25:49.828Z,1.00
2023-01-11T04:28:16.805Z,1.00
2023-01-11T04:30:43.795Z,1.00
2023-01-11T04:33:13.116Z,1.00
2023-01-11T04:35:40.199Z,1.00
2023-01-11T04:38:07.156Z,1.00
2023-01-11T04:40:34.102Z,1.00
2023-01-11T04:55:21.990Z,1.00
2023-01-11T04:57:49.800Z,1.00
2023-01-11T05:00:17.412Z,1.00
2023-01-11T05:02:44.377Z,1.00
2023-01-11T05:05:12.121Z,1.00
2023-01-11T05:07:39.303Z,1.00
2023-01-11T05:10:06.985Z,1.00
2023-01-11T05:12:33.967Z,1.00
2023-01-11T05:15:00.943Z,1.00
2023-01-11T05:57:10.491Z,1.00
2023-01-11T06:04:32.449Z,1.00
2023-01-11T06:06:59.531Z,1.00
2023-01-11T06:24:11.072Z,1.00
2023-01-11T06:29:05.330Z,1.00
2023-01-11T06:31:32.261Z,1.00
2023-01-11T06:33:59.184Z,1.00
2023-01-11T06:36:27.702Z,1.00
2023-01-11T06:38:55.829Z,1.00
2023-01-11T06:41:22.750Z,1.00
2023-01-11T06:43:51.201Z,1.00
2023-01-11T06:46:18.927Z,4.50
2023-01-11T06:48:46.676Z,12.80
2023-01-11T06:53:43.782Z,22.90
2023-01-11T06:56:18.774Z,19.30
2023-01-11T06:58:48.056Z,17.10
2023-01-11T07:06:12.381Z,20.80
2023-01-11T07:23:26.269Z,35.40
2023-01-11T07:25:53.301Z,49.40
2023-01-11T08:23:10.089Z,1.00
2023-01-11T08:25:38.045Z,1.00
2023-01-11T08:28:07.508Z,1.00
2023-01-11T08:30:35.761Z,1.00
2023-01-11T08:33:03.809Z,1.00
2023-01-11T08:40:26.402Z,1.00
2023-01-11T08:42:57.350Z,1.00
2023-01-11T08:47:52.500Z,1.00
2023-01-11T08:50:19.968Z,1.00
2023-01-11T09:34:41.779Z,8.20
2023-01-11T09:37:09.067Z,1.00
2023-01-11T09:42:35.395Z,1.00
2023-01-11T10:06:25.749Z,1.00
2023-01-11T10:38:57.441Z,1.00
2023-01-11T10:41:38.769Z,1.00
2023-01-11T11:01:08.437Z,1.00
2023-01-11T11:43:16.689Z,99.90
2023-01-11T11:46:01.303Z,99.90
2023-01-11T11:48:31.882Z,99.90
2023-01-11T11:51:05.508Z,99.90
2023-01-11T11:53:43.078Z,99.90
2023-01-11T11:56:41.697Z,99.90
2023-01-11T11:59:15.979Z,99.90
2023-01-11T12:01:47.556Z,99.90
2023-01-11T12:07:15.030Z,99.90
2023-01-11T12:12:25.585Z,99.90
2023-01-11T12:15:15.573Z,99.90
2023-01-11T12:17:43.048Z,99.90
2023-01-11T12:31:11.601Z,99.90
2023-01-11T12:33:58.061Z,99.90
2023-01-11T12:36:55.454Z,99.90
2023-01-11T12:40:01.024Z,99.90
2023-01-11T12:45:40.709Z,99.90
2023-01-11T12:48:36.664Z,99.90
2023-01-11T12:54:29.666Z,99.90
2023-01-11T12:57:26.996Z,99.90
2023-01-11T13:00:21.895Z,99.90
2023-01-11T13:03:16.772Z,99.90
2023-01-11T13:06:25.560Z,99.90
2023-01-11T13:09:32.483Z,99.90
2023-01-11T13:12:09.107Z,99.90
2023-01-11T13:15:11.496Z,99.90
2023-01-11T13:18:20.673Z,99.90
2023-01-11T13:24:07.347Z,99.90
2023-01-11T13:26:48.475Z,99.90
2023-01-11T13:53:16.073Z,99.90
2023-01-11T13:56:02.868Z,99.90
2023-01-11T13:58:42.597Z,99.90
2023-01-11T14:31:27.081Z,99.90
2023-01-11T14:34:21.099Z,99.90
2023-01-11T14:51:07.031Z,99.90
2023-01-11T14:53:43.672Z,99.90
2023-01-11T14:56:44.773Z,99.90
2023-01-11T14:59:37.680Z,99.90
2023-01-11T15:02:04.762Z,99.90
2023-01-11T15:10:04.552Z,99.90
2023-01-11T15:12:38.901Z,99.90
2023-01-11T15:28:35.040Z,99.90
2023-01-11T15:39:02.039Z,99.90
2023-01-11T15:45:06.953Z,99.90
2023-01-11T15:48:14.489Z,99.90
2023-01-11T15:51:20.221Z,99.90
2023-01-11T15:54:02.057Z,99.90
2023-01-11T15:57:19.311Z,99.90
2023-01-11T16:00:33.169Z,99.90
2023-01-11T16:03:10.852Z,99.90
2023-01-11T16:05:44.098Z,99.90
2023-01-11T16:08:33.418Z,99.90
2023-01-11T16:11:06.023Z,99.90
2023-01-11T16:14:17.795Z,99.90
2023-01-11T16:16:51.677Z,99.90
2023-01-11T16:19:25.555Z,99.90
2023-01-11T16:21:59.248Z,99.90
2023-01-11T16:24:29.570Z,99.90
2023-01-11T16:27:00.349Z,99.90
2023-01-11T16:29:31.970Z,99.90
2023-01-11T16:32:01.092Z,99.90
2023-01-11T16:34:37.703Z,99.90
2023-01-11T16:37:21.434Z,99.90
2023-01-11T16:39:52.253Z,99.90
2023-01-11T16:42:20.168Z,99.90
2023-01-11T16:45:01.526Z,99.90
2023-01-11T16:47:28.491Z,99.90
2023-01-11T16:50:13.998Z,99.90
2023-01-11T16:52:58.899Z,99.90
2023-01-11T16:55:30.127Z,99.90
2023-01-11T16:58:01.368Z,99.90
2023-01-11T17:00:36.533Z,99.90
2023-01-11T17:03:25.898Z,99.90
2023-01-11T17:06:09.200Z,99.90
2023-01-11T17:08:38.895Z,99.90
2023-01-11T17:11:29.801Z,99.90
2023-01-11T17:14:50.137Z,99.90
2023-01-11T17:17:17.547Z,99.90
2023-01-11T17:19:50.519Z,99.90
2023-01-11T17:22:33.100Z,99.90
2023-01-11T17:25:07.375Z,99.90
2023-01-11T17:27:41.268Z,99.90
2023-01-11T17:30:17.581Z,99.90
2023-01-11T17:32:48.963Z,99.90
2023-01-11T17:35:28.626Z,99.90
2023-01-11T17:38:03.329Z,99.90
2023-01-11T17:40:38.116Z,99.90
2023-01-11T17:43:44.114Z,99.90
2023-01-11T17:46:25.384Z,99.90
2023-01-11T17:48:57.287Z,99.90
2023-01-11T17:51:33.780Z,99.90
2023-01-11T17:54:01.077Z,99.90
2023-01-11T17:56:41.895Z,99.90
2023-01-11T17:59:11.496Z,99.90
2023-01-11T18:01:38.811Z,99.90
2023-01-11T18:04:05.819Z,99.90
2023-01-11T18:06:41.903Z,99.90
2023-01-11T18:09:30.593Z,99.90
2023-01-11T18:12:20.822Z,99.90
2023-01-11T18:15:00.764Z,99.90
2023-01-11T18:17:36.382Z,99.90
2023-01-11T18:20:29.873Z,99.90
2023-01-11T18:23:19.815Z,99.90
2023-01-11T18:25:47.176Z,99.90
2023-01-11T18:28:29.972Z,99.90
2023-01-11T18:31:01.625Z,99.90
2023-01-11T18:33:32.165Z,99.90
2023-01-11T18:36:03.633Z,99.90
2023-01-11T18:38:34.059Z,99.90
2023-01-11T18:41:25.458Z,99.90
2023-01-11T18:43:53.935Z,99.90
2023-01-11T18:46:20.969Z,99.90
2023-01-11T18:48:47.969Z,99.90
2023-01-11T18:51:31.762Z,99.90
2023-01-11T18:53:58.726Z,99.90
2023-01-11T18:56:25.623Z,99.90
2023-01-11T18:58:52.555Z,99.90
2023-01-11T19:01:19.766Z,99.90
2023-01-11T19:03:46.796Z,99.90
2023-01-11T19:06:14.068Z,99.90
2023-01-11T19:08:41.056Z,99.90
2023-01-11T19:11:08.074Z,99.90
2023-01-11T19:13:35.030Z,99.90
2023-01-11T19:16:02.096Z,99.90
2023-01-11T19:18:29.386Z,99.90
2023-01-11T19:21:02.870Z,99.90
2023-01-11T19:23:30.008Z,99.90
2023-01-11T19:26:02.118Z,99.90
2023-01-11T19:28:29.679Z,99.90
2023-01-11T19:30:56.815Z,99.90
2023-01-11T19:33:24.537Z,99.90
2023-01-11T19:35:51.550Z,99.90
2023-01-11T19:38:21.609Z,99.90
2023-01-11T19:40:50.412Z,99.90
2023-01-11T19:45:45.148Z,99.90
2023-01-11T19:48:12.399Z,99.90
2023-01-11T19:50:39.356Z,99.90
2023-01-11T19:53:06.406Z,99.90
2023-01-11T20:00:29.927Z,99.90
2023-01-11T20:02:57.108Z,99.90
2023-01-11T20:05:24.112Z,99.90
2023-01-11T20:07:51.105Z,99.90
2023-01-11T20:10:18.236Z,99.90
2023-01-11T20:12:45.190Z,99.90
2023-01-11T20:15:12.310Z,99.90
2023-01-11T20:17:39.315Z,99.90
2023-01-11T20:20:07.305Z,99.90
2023-01-11T20:22:34.302Z,99.90
2023-01-11T20:25:01.417Z,99.90
2023-01-11T20:27:28.597Z,99.90
2023-01-11T20:29:55.919Z,99.90
2023-01-11T20:32:40.491Z,99.90
2023-01-11T20:35:09.547Z,99.90
2023-01-11T20:37:36.461Z,99.90
2023-01-11T20:40:03.878Z,99.90
2023-01-11T20:42:31.616Z,99.90
2023-01-11T20:44:58.618Z,99.90
2023-01-11T20:47:25.589Z,99.90
2023-01-11T20:49:52.669Z,99.90
2023-01-11T20:52:19.783Z,99.90
2023-01-11T20:54:46.936Z,99.90
2023-01-11T20:57:13.923Z,99.90
2023-01-11T20:59:41.137Z,99.90
2023-01-11T21:02:10.167Z,99.90
2023-01-11T21:07:04.783Z,99.90
2023-01-11T21:09:32.191Z,99.90
2023-01-11T21:14:26.723Z,99.90
2023-01-11T21:16:56.296Z,99.90
2023-01-11T21:19:23.565Z,99.90
2023-01-11T21:21:50.962Z,99.90
2023-01-11T21:24:18.123Z,99.90
2023-01-11T21:26:45.925Z,99.90
2023-01-11T21:29:13.602Z,99.90
2023-01-11T21:31:41.758Z,99.90
2023-01-11T21:36:41.508Z,99.90
2023-01-11T21:39:12.779Z,99.90
2023-01-11T21:41:58.339Z,99.90
2023-01-11T21:44:32.439Z,99.90
2023-01-11T21:47:05.889Z,99.90
2023-01-11T21:49:33.416Z,99.90
2023-01-11T21:52:00.458Z,99.90
2023-01-11T21:54:27.491Z,99.90
2023-01-11T21:56:54.541Z,99.90
2023-01-11T21:59:21.662Z,99.90
2023-01-11T22:01:49.291Z,99.90
2023-01-11T22:04:20.151Z,99.90
2023-01-11T22:06:53.910Z,99.90
2023-01-11T22:09:22.288Z,99.90
2023-01-11T22:11:50.975Z,99.90
2023-01-11T22:14:19.193Z,99.90
2023-01-11T22:16:46.288Z,99.90
2023-01-11T22:19:14.311Z,99.90
2023-01-11T22:21:41.341Z,99.90
2023-01-11T22:24:11.854Z,99.90
2023-01-11T22:26:39.543Z,99.90
2023-01-11T22:29:16.873Z,99.90
2023-01-11T22:31:55.085Z,99.90
2023-01-11T22:36:50.921Z,99.90
2023-01-11T22:39:19.579Z,99.90
2023-01-11T22:41:49.386Z,99.90
2023-01-11T22:44:17.284Z,99.90
2023-01-11T22:46:45.300Z,99.90
2023-01-11T22:49:13.064Z,97.60
2023-01-11T22:51:44.113Z,35.70
2023-01-11T22:54:11.801Z,1.00
2023-01-11T22:56:39.461Z,1.00
2023-01-11T22:59:06.728Z,1.00
2023-01-11T23:01:37.205Z,1.00
2023-01-11T23:04:06.017Z,1.00
2023-01-11T23:06:37.383Z,1.00
2023-01-11T23:09:09.298Z,1.00
2023-01-11T23:11:57.592Z,1.00
2023-01-11T23:14:30.986Z,1.00
2023-01-11T23:17:06.834Z,1.00
2023-01-11T23:19:39.667Z,1.00
2023-01-11T23:22:07.905Z,1.00
2023-01-11T23:24:37.202Z,1.00
2023-01-11T23:27:04.291Z,1.00
2023-01-11T23:29:31.304Z,1.00
2023-01-11T23:31:58.359Z,1.00
2023-01-11T23:36:52.720Z,1.00
2023-01-11T23:39:19.950Z,1.00
2023-01-11T23:42:05.828Z,1.00
2023-01-11T23:44:32.852Z,1.00
2023-01-11T23:47:18.147Z,1.00
2023-01-11T23:49:45.490Z,1.00
2023-01-11T23:52:12.534Z,1.00
2023-01-11T23:54:39.802Z,1.00
2023-01-11T23:57:07.355Z,1.00
2023-01-11T23:59:34.458Z,1.00
